createdAt,value
2022-08-08T00:02:03.428Z,19.60
2022-08-08T00:04:25.383Z,19.50
2022-08-08T00:07:12.780Z,19.50
2022-08-08T00:10:00.787Z,19.50
2022-08-08T00:12:35.579Z,19.40
2022-08-08T00:15:12.994Z,19.30
2022-08-08T00:18:03.747Z,19.30
2022-08-08T00:20:40.191Z,19.30
2022-08-08T00:23:14.719Z,19.20
2022-08-08T00:25:51.766Z,19.20
2022-08-08T00:28:35.514Z,19.10
2022-08-08T00:32:20.203Z,19.10
2022-08-08T00:34:28.994Z,19.00
2022-08-08T00:37:03.714Z,18.90
2022-08-08T00:41:06.568Z,18.80
2022-08-08T00:43:19.775Z,18.50
2022-08-08T00:46:16.472Z,18.80
2022-08-08T00:49:22.022Z,18.90
2022-08-08T00:52:20.089Z,18.80
2022-08-08T00:55:53.227Z,18.90
2022-08-08T00:59:43.871Z,18.80
2022-08-08T01:03:59.402Z,18.70
2022-08-08T01:06:27.652Z,18.80
2022-08-08T01:09:42.222Z,18.70
2022-08-08T01:12:52.115Z,18.60
2022-08-08T01:16:03.358Z,18.40
2022-08-08T01:19:02.716Z,18.40
2022-08-08T01:22:13.587Z,18.40
2022-08-08T01:25:14.446Z,18.40
2022-08-08T01:28:03.545Z,18.40
2022-08-08T01:32:05.565Z,18.40
2022-08-08T01:34:42.413Z,18.40
2022-08-08T01:37:57.723Z,18.40
2022-08-08T01:40:37.788Z,18.40
2022-08-08T01:43:14.339Z,18.20
2022-08-08T01:45:58.840Z,18.40
2022-08-08T01:48:51.261Z,18.30
2022-08-08T01:52:52.264Z,18.30
2022-08-08T01:55:19.279Z,18.20
2022-08-08T01:58:12.974Z,18.10
2022-08-08T02:00:57.387Z,18.20
2022-08-08T02:03:54.762Z,18.40
2022-08-08T02:06:51.875Z,18.20
2022-08-08T02:10:01.327Z,18.00
2022-08-08T02:12:58.400Z,18.00
2022-08-08T02:15:38.498Z,17.80
2022-08-08T02:18:12.956Z,17.70
2022-08-08T02:21:13.335Z,17.80
2022-08-08T02:23:54.662Z,17.70
2022-08-08T02:26:31.975Z,17.80
2022-08-08T02:29:22.037Z,17.80
2022-08-08T02:32:22.862Z,17.80
2022-08-08T02:36:03.301Z,17.90
2022-08-08T02:38:51.704Z,17.70
2022-08-08T02:41:59.205Z,17.70
2022-08-08T02:45:25.012Z,17.70
2022-08-08T02:48:29.476Z,17.80
2022-08-08T02:51:55.614Z,17.80
2022-08-08T02:55:20.627Z,17.80
2022-08-08T02:58:40.785Z,17.80
2022-08-08T03:01:50.640Z,17.70
2022-08-08T03:05:09.427Z,17.60
2022-08-08T03:08:21.587Z,17.60
2022-08-08T03:11:47.709Z,17.40
2022-08-08T03:15:58.220Z,17.50
2022-08-08T03:17:59.831Z,17.50
2022-08-08T03:20:51.526Z,17.60
2022-08-08T03:23:40.094Z,17.50
2022-08-08T03:26:28.061Z,17.50
2022-08-08T03:29:03.751Z,17.50
2022-08-08T03:32:06.692Z,17.50
2022-08-08T03:34:39.773Z,17.30
2022-08-08T03:37:59.019Z,17.40
2022-08-08T03:40:10.787Z,17.30
2022-08-08T03:42:56.832Z,17.30
2022-08-08T03:46:05.790Z,17.40
2022-08-08T03:48:21.283Z,17.40
2022-08-08T03:51:09.330Z,17.40
2022-08-08T03:53:47.696Z,17.40
2022-08-08T03:56:31.492Z,17.50
2022-08-08T03:59:01.238Z,17.50
2022-08-08T04:02:12.435Z,17.40
2022-08-08T04:04:30.757Z,17.30
2022-08-08T04:07:01.923Z,17.20
2022-08-08T04:10:00.598Z,17.40
2022-08-08T04:12:23.943Z,17.40
2022-08-08T04:14:53.519Z,17.30
2022-08-08T04:17:58.336Z,17.30
2022-08-08T04:20:14.398Z,17.20
2022-08-08T04:22:44.526Z,17.20
2022-08-08T04:25:20.092Z,17.00
2022-08-08T04:28:03.530Z,16.90
2022-08-08T04:30:44.303Z,16.60
2022-08-08T04:33:15.350Z,16.70
2022-08-08T04:35:50.928Z,16.70
2022-08-08T04:38:21.196Z,16.60
2022-08-08T04:40:54.326Z,16.40
2022-08-08T04:43:31.844Z,16.50
2022-08-08T04:46:14.770Z,16.70
2022-08-08T04:48:44.838Z,16.80
2022-08-08T04:51:17.453Z,17.00
2022-08-08T04:54:39.182Z,17.50
2022-08-08T04:56:45.763Z,17.70
2022-08-08T04:59:16.922Z,17.70
2022-08-08T05:01:48.181Z,17.70
2022-08-08T05:04:18.122Z,17.80
2022-08-08T05:06:47.666Z,17.90
2022-08-08T05:09:21.595Z,18.40
2022-08-08T05:11:56.562Z,18.50
2022-08-08T05:14:29.275Z,19.20
2022-08-08T05:17:01.129Z,20.50
2022-08-08T05:20:10.667Z,21.90
2022-08-08T05:22:29.776Z,23.40
2022-08-08T05:25:00.757Z,24.50
2022-08-08T05:27:33.223Z,25.10
2022-08-08T05:30:05.116Z,25.30
2022-08-08T05:32:36.300Z,26.00
2022-08-08T05:35:06.320Z,26.20
2022-08-08T05:37:52.243Z,26.60
2022-08-08T05:40:27.890Z,26.80
2022-08-08T05:43:38.494Z,26.90
2022-08-08T05:46:02.984Z,27.10
2022-08-08T05:48:34.588Z,27.70
2022-08-08T05:51:12.778Z,28.20
2022-08-08T05:54:25.515Z,28.40
2022-08-08T05:56:42.169Z,28.90
2022-08-08T05:59:59.838Z,28.80
2022-08-08T06:02:39.068Z,29.00
2022-08-08T06:05:34.731Z,29.30
2022-08-08T06:08:10.237Z,29.90
2022-08-08T06:10:52.288Z,30.00
2022-08-08T06:13:23.225Z,29.80
2022-08-08T06:15:55.618Z,29.50
2022-08-08T06:18:30.588Z,29.50
2022-08-08T06:21:03.780Z,29.50
2022-08-08T06:23:59.955Z,29.10
2022-08-08T06:26:45.578Z,29.20
2022-08-08T06:29:59.323Z,29.30
2022-08-08T06:32:23.392Z,29.10
2022-08-08T06:36:04.827Z,29.40
2022-08-08T06:37:55.734Z,29.90
2022-08-08T06:43:38.595Z,29.90
2022-08-08T06:46:16.668Z,29.80
2022-08-08T06:48:48.986Z,29.90
2022-08-08T06:51:23.314Z,30.00
2022-08-08T06:54:03.528Z,30.10
2022-08-08T06:56:35.239Z,30.80
2022-08-08T06:59:09.764Z,31.10
2022-08-08T07:02:17.477Z,31.30
2022-08-08T07:04:51.757Z,31.60
2022-08-08T07:07:45.330Z,31.90
2022-08-08T07:10:15.335Z,32.00
2022-08-08T07:12:50.160Z,32.00
2022-08-08T07:15:32.614Z,32.20
2022-08-08T07:18:36.848Z,32.70
2022-08-08T07:21:19.151Z,32.40
2022-08-08T07:24:04.413Z,32.60
2022-08-08T07:26:37.996Z,32.10
2022-08-08T07:29:11.681Z,32.00
2022-08-08T07:32:04.900Z,31.90
2022-08-08T07:34:48.308Z,32.20
2022-08-08T07:37:55.793Z,32.80
2022-08-08T07:41:26.081Z,32.90
2022-08-08T07:44:12.270Z,33.20
2022-08-08T07:46:58.869Z,33.40
2022-08-08T07:49:34.365Z,33.70
2022-08-08T07:52:06.224Z,33.90
2022-08-08T07:54:56.650Z,34.10
2022-08-08T07:57:48.459Z,33.90
2022-08-08T08:00:27.679Z,34.10
2022-08-08T08:03:05.182Z,34.20
2022-08-08T08:09:06.674Z,34.50
2022-08-08T08:11:51.608Z,34.70
2022-08-08T08:14:32.066Z,34.10
2022-08-08T08:17:05.454Z,34.00
2022-08-08T08:19:56.902Z,34.20
2022-08-08T08:22:43.177Z,34.40
2022-08-08T08:25:42.544Z,33.80
2022-08-08T08:28:24.133Z,34.00
2022-08-08T08:30:56.521Z,34.00
2022-08-08T08:33:43.828Z,33.70
2022-08-08T08:36:21.746Z,33.60
2022-08-08T08:39:00.847Z,34.10
2022-08-08T08:42:02.002Z,34.20
2022-08-08T08:45:01.816Z,33.90
2022-08-08T08:47:53.172Z,34.20
2022-08-08T08:50:40.972Z,34.40
2022-08-08T08:53:45.346Z,34.40
2022-08-08T08:56:05.127Z,34.90
2022-08-08T08:58:57.987Z,35.00
2022-08-08T09:01:45.654Z,34.90
2022-08-08T09:07:52.455Z,35.10
2022-08-08T09:10:36.298Z,34.90
2022-08-08T09:13:25.290Z,34.60
2022-08-08T09:16:23.662Z,34.80
2022-08-08T09:19:03.591Z,34.90
2022-08-08T09:21:59.851Z,35.20
2022-08-08T09:24:42.695Z,34.80
